createdAt,value
2022-11-15T00:01:19.146Z,42.47
2022-11-15T00:03:47.762Z,31.95
2022-11-15T00:06:16.088Z,39.03
2022-11-15T00:08:44.108Z,36.33
2022-11-15T00:11:14.925Z,38.95
2022-11-15T00:13:43.289Z,32.50
2022-11-15T00:16:12.274Z,28.85
2022-11-15T00:18:40.676Z,35.30
2022-11-15T00:21:13.089Z,31.63
2022-11-15T00:23:41.417Z,37.88
2022-11-15T00:26:13.137Z,42.53
2022-11-15T00:28:43.053Z,37.97
2022-11-15T00:31:14.708Z,33.00
2022-11-15T00:33:45.535Z,29.55
2022-11-15T00:36:13.805Z,35.80
2022-11-15T00:38:42.255Z,28.40
2022-11-15T00:41:10.899Z,34.95
2022-11-15T00:43:40.882Z,32.95
2022-11-15T00:46:10.813Z,31.15
2022-11-15T00:48:38.990Z,34.25
2022-11-15T00:51:07.349Z,34.55
2022-11-15T00:53:35.549Z,31.80
2022-11-15T00:56:03.737Z,34.08
2022-11-15T00:58:31.735Z,41.00
2022-11-15T01:01:08.177Z,24.10
2022-11-15T01:03:38.299Z,33.50
2022-11-15T01:06:07.440Z,24.85
2022-11-15T01:08:35.741Z,30.90
2022-11-15T01:11:04.678Z,41.50
2022-11-15T01:13:34.307Z,34.13
2022-11-15T01:16:07.620Z,36.47
2022-11-15T01:18:37.057Z,38.30
2022-11-15T01:21:08.679Z,30.05
2022-11-15T01:23:37.043Z,30.63
2022-11-15T01:26:06.876Z,28.42
2022-11-15T01:28:35.823Z,34.55
2022-11-15T01:31:05.696Z,42.10
2022-11-15T01:33:37.924Z,32.78
2022-11-15T01:36:07.120Z,33.75
2022-11-15T01:38:35.455Z,37.63
2022-11-15T01:41:03.514Z,45.33
2022-11-15T01:43:34.150Z,37.42
2022-11-15T01:46:06.534Z,38.50
2022-11-15T01:48:36.165Z,31.67
2022-11-15T01:51:09.297Z,42.05
2022-11-15T01:53:39.985Z,35.80
2022-11-15T01:56:11.943Z,46.95
2022-11-15T01:58:42.553Z,40.47
2022-11-15T02:01:10.700Z,34.25
2022-11-15T02:03:44.937Z,34.20
2022-11-15T02:06:14.646Z,29.27
2022-11-15T02:08:43.122Z,41.58
2022-11-15T02:11:11.433Z,34.15
2022-11-15T02:13:39.717Z,39.65
2022-11-15T02:16:15.699Z,31.52
2022-11-15T02:18:51.320Z,33.90
2022-11-15T02:21:29.675Z,31.00
2022-11-15T02:24:36.054Z,27.83
2022-11-15T02:27:46.944Z,26.90
2022-11-15T02:30:40.331Z,34.97
2022-11-15T02:33:21.201Z,40.00
2022-11-15T02:35:59.462Z,40.67
2022-11-15T02:38:35.103Z,31.63
2022-11-15T02:41:07.338Z,33.17
2022-11-15T02:43:59.788Z,28.60
2022-11-15T02:46:58.396Z,26.27
2022-11-15T02:49:29.718Z,24.85
2022-11-15T02:51:58.442Z,24.27
2022-11-15T02:54:28.468Z,27.10
2022-11-15T02:57:02.903Z,23.75
2022-11-15T02:59:54.361Z,24.75
2022-11-15T03:02:38.802Z,21.17
2022-11-15T03:05:16.152Z,23.70
2022-11-15T03:07:51.300Z,24.15
2022-11-15T03:10:26.652Z,29.75
2022-11-15T03:12:59.512Z,23.50
2022-11-15T03:15:31.892Z,32.60
2022-11-15T03:18:07.063Z,24.17
2022-11-15T03:20:37.393Z,20.63
2022-11-15T03:23:08.549Z,40.97
2022-11-15T03:25:40.239Z,41.03
2022-11-15T03:28:11.578Z,44.50
2022-11-15T03:30:40.873Z,27.98
2022-11-15T03:33:11.944Z,28.17
2022-11-15T03:35:42.668Z,31.42
2022-11-15T03:38:17.856Z,26.33
2022-11-15T03:40:51.601Z,27.42
2022-11-15T03:43:27.949Z,27.48
2022-11-15T03:46:01.361Z,29.08
2022-11-15T03:48:35.835Z,33.42
2022-11-15T03:51:05.764Z,30.85
2022-11-15T03:53:34.079Z,41.08
2022-11-15T03:56:02.350Z,31.73
2022-11-15T03:58:30.402Z,37.08
2022-11-15T04:00:58.444Z,24.40
2022-11-15T04:03:26.550Z,24.13
2022-11-15T04:05:56.010Z,33.33
2022-11-15T04:08:24.038Z,23.67
2022-11-15T04:10:52.394Z,30.92
2022-11-15T04:13:20.402Z,36.35
2022-11-15T04:15:48.362Z,34.55
2022-11-15T04:18:16.410Z,36.08
2022-11-15T04:21:01.900Z,40.38
2022-11-15T04:23:48.921Z,30.58
2022-11-15T04:26:19.959Z,27.50
2022-11-15T04:29:01.809Z,28.88
2022-11-15T04:31:30.135Z,40.20
2022-11-15T04:33:58.562Z,43.50
2022-11-15T04:36:44.176Z,37.00
2022-11-15T04:39:13.632Z,39.03
2022-11-15T04:41:41.625Z,40.50
2022-11-15T04:44:10.645Z,41.95
2022-11-15T04:46:38.648Z,32.42
2022-11-15T04:49:06.609Z,38.80
2022-11-15T04:51:34.596Z,40.05
2022-11-15T04:54:02.659Z,30.80
2022-11-15T04:56:32.035Z,36.10
2022-11-15T04:59:00.035Z,40.92
2022-11-15T05:01:28.032Z,41.22
2022-11-15T05:04:13.605Z,29.70
2022-11-15T05:06:41.608Z,42.08
2022-11-15T05:09:09.693Z,39.90
2022-11-15T05:11:39.017Z,37.72
2022-11-15T05:14:07.152Z,36.40
2022-11-15T05:16:35.184Z,38.25
2022-11-15T05:19:04.139Z,41.65
2022-11-15T05:21:32.125Z,41.85
2022-11-15T05:24:00.309Z,37.03
2022-11-15T05:26:28.533Z,35.65
2022-11-15T05:28:59.369Z,39.05
2022-11-15T05:31:29.381Z,37.58
2022-11-15T05:34:00.651Z,37.53
2022-11-15T05:36:35.757Z,34.75
2022-11-15T05:39:04.477Z,44.90
2022-11-15T05:41:36.065Z,34.63
2022-11-15T05:44:08.323Z,25.58
2022-11-15T05:46:38.115Z,31.92
2022-11-15T05:49:11.289Z,38.85
2022-11-15T05:51:39.595Z,36.50
2022-11-15T05:54:07.873Z,34.22
2022-11-15T05:56:35.936Z,38.25
2022-11-15T05:59:05.838Z,31.83
2022-11-15T06:01:33.966Z,29.60
2022-11-15T06:04:02.097Z,35.33
2022-11-15T06:06:30.104Z,34.35
2022-11-15T06:08:58.201Z,29.70
2022-11-15T06:11:26.329Z,31.38
2022-11-15T06:13:54.391Z,33.42
2022-11-15T06:16:23.889Z,27.45
2022-11-15T06:18:51.969Z,31.13
2022-11-15T06:21:20.049Z,34.47
2022-11-15T06:23:48.053Z,30.10
2022-11-15T06:26:16.070Z,30.50
2022-11-15T06:28:44.066Z,28.83
2022-11-15T06:31:13.331Z,27.42
2022-11-15T06:33:42.901Z,24.88
2022-11-15T06:36:17.458Z,27.17
2022-11-15T06:41:15.511Z,29.58
2022-11-15T06:43:43.895Z,35.75
2022-11-15T06:46:11.976Z,26.50
2022-11-15T06:48:40.021Z,27.60
2022-11-15T06:51:09.706Z,24.48
2022-11-15T06:53:37.972Z,65.18
2022-11-15T06:56:08.333Z,95.50
2022-11-15T06:58:36.484Z,37.60
2022-11-15T07:01:06.955Z,39.67
2022-11-15T07:03:37.385Z,27.27
2022-11-15T07:06:07.637Z,30.13
2022-11-15T07:08:38.555Z,29.40
2022-11-15T07:11:09.160Z,40.83
2022-11-15T07:13:38.402Z,25.35
2022-11-15T07:16:07.689Z,21.65
2022-11-15T07:18:36.809Z,22.05
2022-11-15T07:21:06.349Z,25.58
2022-11-15T07:23:34.992Z,24.00
2022-11-15T07:26:04.518Z,24.58
2022-11-15T07:28:32.999Z,26.45
2022-11-15T07:31:04.371Z,24.38
2022-11-15T07:33:32.783Z,26.05
2022-11-15T07:36:02.993Z,23.95
2022-11-15T07:38:31.371Z,24.80
2022-11-15T07:41:00.148Z,19.83
2022-11-15T07:43:31.044Z,19.30
2022-11-15T07:45:59.863Z,18.50
2022-11-15T07:48:40.222Z,17.35
2022-11-15T07:51:14.599Z,19.58
2022-11-15T07:53:44.366Z,20.83
2022-11-15T07:56:14.326Z,20.20
2022-11-15T07:58:43.791Z,20.88
2022-11-15T08:01:12.559Z,20.48
2022-11-15T08:03:40.657Z,22.08
2022-11-15T08:06:08.723Z,22.00
2022-11-15T08:08:36.708Z,19.05
2022-11-15T08:11:04.856Z,20.63
2022-11-15T08:13:33.217Z,21.33
2022-11-15T08:16:03.944Z,23.90
2022-11-15T08:18:32.186Z,19.45
2022-11-15T08:21:02.163Z,25.95
2022-11-15T08:23:30.876Z,23.85
2022-11-15T08:26:04.148Z,20.77
2022-11-15T08:28:32.884Z,27.08
2022-11-15T08:31:02.392Z,27.20
2022-11-15T08:33:31.188Z,28.38
2022-11-15T08:36:00.190Z,26.02
2022-11-15T08:38:29.920Z,31.38
2022-11-15T08:41:03.458Z,26.25
2022-11-15T08:43:32.196Z,28.23
2022-11-15T08:46:02.199Z,25.42
2022-11-15T08:48:30.285Z,24.70
2022-11-15T08:50:59.463Z,26.52
2022-11-15T08:53:27.559Z,25.48
2022-11-15T08:55:55.660Z,28.35
2022-11-15T08:58:23.741Z,20.52
2022-11-15T09:00:51.741Z,23.75
2022-11-15T09:03:21.202Z,28.08
2022-11-15T09:05:49.299Z,32.83
2022-11-15T09:08:46.129Z,28.13
2022-11-15T09:11:05.873Z,29.48
2022-11-15T09:13:34.206Z,23.73
2022-11-15T09:16:03.594Z,25.70
2022-11-15T09:18:33.230Z,24.48
2022-11-15T09:21:03.310Z,23.67
2022-11-15T09:23:31.452Z,23.75
2022-11-15T09:26:03.910Z,27.20
2022-11-15T09:28:32.969Z,27.83
2022-11-15T09:31:02.382Z,27.15
2022-11-15T09:33:32.269Z,21.15
2022-11-15T09:36:03.678Z,20.05
2022-11-15T09:38:31.764Z,22.90
2022-11-15T09:41:35.802Z,23.65
2022-11-15T09:44:25.107Z,24.35
2022-11-15T09:47:03.640Z,22.25
2022-11-15T09:49:34.319Z,23.70
2022-11-15T09:52:02.932Z,21.45
2022-11-15T09:57:26.798Z,17.67
2022-11-15T10:03:06.766Z,22.10
2022-11-15T10:05:40.845Z,24.25
2022-11-15T10:08:23.421Z,22.03
2022-11-15T10:11:35.476Z,25.10
2022-11-15T10:13:52.368Z,21.15
2022-11-15T10:16:45.786Z,22.92
2022-11-15T10:19:22.722Z,24.55
2022-11-15T10:22:01.664Z,23.15
2022-11-15T10:24:33.133Z,22.70
2022-11-15T10:27:01.173Z,20.13
2022-11-15T10:29:29.381Z,18.45
2022-11-15T10:31:57.453Z,18.65
2022-11-15T10:34:27.726Z,16.55
2022-11-15T10:37:02.951Z,15.77
2022-11-15T10:39:33.522Z,18.83
2022-11-15T10:42:18.281Z,18.95
2022-11-15T10:44:47.203Z,18.02
2022-11-15T10:47:28.457Z,17.30
2022-11-15T10:50:01.982Z,20.98
2022-11-15T10:52:32.846Z,20.08
2022-11-15T10:55:05.861Z,19.95
2022-11-15T10:57:38.571Z,22.13
2022-11-15T11:00:09.132Z,21.75
2022-11-15T11:02:39.081Z,19.45
2022-11-15T11:05:15.076Z,20.90
2022-11-15T11:07:58.523Z,18.65
2022-11-15T11:10:50.579Z,20.45
2022-11-15T11:13:16.612Z,19.63
2022-11-15T11:15:47.938Z,21.38
2022-11-15T11:18:25.678Z,21.60
2022-11-15T11:21:00.252Z,20.88
2022-11-15T11:23:48.157Z,24.35
2022-11-15T11:26:38.016Z,21.60
2022-11-15T11:29:18.566Z,21.50
2022-11-15T11:31:56.631Z,26.88
2022-11-15T11:34:38.723Z,23.88
2022-11-15T11:37:16.588Z,24.95
2022-11-15T11:39:56.411Z,24.63
2022-11-15T11:42:32.455Z,23.33
2022-11-15T11:45:08.102Z,23.85
2022-11-15T11:47:42.375Z,25.60
2022-11-15T11:50:16.551Z,26.13
2022-11-15T11:53:00.906Z,24.40
2022-11-15T11:55:39.599Z,26.17
2022-11-15T11:58:15.492Z,30.45
2022-11-15T12:00:49.365Z,29.27
2022-11-15T12:03:27.673Z,27.98
2022-11-15T12:05:58.966Z,27.02
2022-11-15T12:08:35.676Z,31.80
2022-11-15T12:11:12.501Z,28.20
2022-11-15T12:13:40.846Z,33.20
2022-11-15T12:16:16.968Z,35.85
2022-11-15T12:18:49.720Z,35.22
2022-11-15T12:21:28.330Z,34.38
2022-11-15T12:24:05.172Z,28.55
2022-11-15T12:26:40.625Z,29.85
2022-11-15T12:29:17.515Z,29.60
2022-11-15T12:31:49.886Z,31.23
2022-11-15T12:34:37.839Z,28.95
2022-11-15T12:37:36.352Z,31.58
2022-11-15T12:40:21.598Z,30.70
2022-11-15T12:43:16.423Z,38.75
2022-11-15T12:45:45.907Z,35.80
2022-11-15T12:48:59.485Z,34.30
2022-11-15T12:52:08.070Z,35.53
2022-11-15T12:55:32.356Z,37.83
2022-11-15T12:58:29.300Z,39.47
2022-11-15T13:00:57.788Z,39.45
2022-11-15T13:03:28.596Z,39.08
2022-11-15T13:06:28.043Z,40.67
2022-11-15T13:08:56.182Z,39.20
2022-11-15T13:12:02.718Z,36.72
2022-11-15T13:14:51.687Z,35.25
2022-11-15T13:17:38.834Z,35.60
2022-11-15T13:20:29.178Z,35.92
2022-11-15T13:23:04.838Z,35.42
2022-11-15T13:26:11.300Z,37.38
2022-11-15T13:28:41.233Z,37.45
2022-11-15T13:31:29.962Z,36.33
2022-11-15T13:34:07.338Z,32.97
2022-11-15T13:36:45.917Z,33.53
2022-11-15T13:39:27.469Z,33.65
2022-11-15T13:41:55.943Z,36.55
2022-11-15T13:44:26.149Z,37.38
2022-11-15T13:47:06.101Z,35.55
2022-11-15T13:49:35.230Z,37.72
2022-11-15T13:52:07.189Z,41.55
2022-11-15T13:54:39.401Z,41.30
2022-11-15T13:57:14.672Z,38.40
2022-11-15T13:59:49.357Z,35.50
2022-11-15T14:02:23.576Z,43.13
2022-11-15T14:04:55.273Z,41.58
2022-11-15T14:07:28.736Z,43.55
2022-11-15T14:09:56.899Z,39.58
2022-11-15T14:12:31.752Z,38.35
2022-11-15T14:15:01.253Z,38.30
2022-11-15T14:17:45.764Z,36.22
2022-11-15T14:20:31.776Z,36.88
2022-11-15T14:23:01.513Z,36.63
2022-11-15T14:25:30.753Z,34.08
2022-11-15T14:28:14.824Z,28.60
2022-11-15T14:30:44.183Z,30.85
2022-11-15T14:33:32.790Z,28.55
2022-11-15T14:36:06.455Z,33.20
2022-11-15T14:38:35.911Z,32.75
2022-11-15T14:41:04.262Z,38.15
2022-11-15T14:43:32.394Z,138.50
2022-11-15T14:46:00.381Z,41.70
2022-11-15T14:48:28.368Z,42.25
2022-11-15T14:50:58.625Z,42.38
2022-11-15T14:53:26.610Z,41.15
2022-11-15T14:55:55.160Z,40.88
2022-11-15T14:58:23.113Z,41.13
2022-11-15T15:00:51.187Z,41.97
2022-11-15T15:03:19.133Z,43.38
2022-11-15T15:05:47.057Z,40.63
2022-11-15T15:08:16.570Z,47.10
2022-11-15T15:10:47.203Z,46.00
2022-11-15T15:13:19.730Z,45.08
2022-11-15T15:15:48.393Z,40.80
2022-11-15T15:18:16.585Z,42.13
2022-11-15T15:20:46.607Z,40.28
2022-11-15T15:23:21.575Z,43.00
2022-11-15T15:25:50.308Z,40.15
2022-11-15T15:28:18.602Z,37.90
2022-11-15T15:30:46.577Z,41.58
2022-11-15T15:33:14.589Z,40.25
2022-11-15T15:35:42.672Z,76.97
2022-11-15T15:38:13.065Z,49.92
2022-11-15T15:40:42.643Z,53.42
2022-11-15T15:43:10.587Z,53.38
2022-11-15T15:45:40.370Z,71.43
2022-11-15T15:48:10.643Z,55.00
2022-11-15T15:50:39.756Z,45.63
2022-11-15T15:53:09.145Z,45.90
2022-11-15T15:55:37.294Z,46.63
2022-11-15T15:58:07.693Z,48.65
2022-11-15T16:00:35.702Z,51.17
2022-11-15T16:03:04.122Z,51.03
2022-11-15T16:05:32.093Z,49.13
2022-11-15T16:08:00.168Z,47.25
2022-11-15T16:10:30.265Z,50.03
2022-11-15T16:12:59.845Z,58.35
2022-11-15T16:15:32.495Z,48.92
2022-11-15T16:18:02.360Z,49.78
2022-11-15T16:20:37.117Z,48.67
2022-11-15T16:23:09.690Z,46.45
2022-11-15T16:25:43.230Z,43.28
2022-11-15T16:28:25.562Z,55.42
2022-11-15T16:31:05.089Z,53.53
2022-11-15T16:33:33.889Z,43.83
2022-11-15T16:36:02.275Z,66.15
2022-11-15T16:38:30.619Z,48.40
2022-11-15T16:40:58.904Z,49.17
2022-11-15T16:43:27.083Z,43.17
2022-11-15T16:45:56.610Z,53.95
2022-11-15T16:48:27.777Z,41.42
2022-11-15T16:50:57.957Z,49.15
2022-11-15T16:53:26.549Z,74.38
2022-11-15T16:55:54.970Z,53.08
2022-11-15T16:58:23.029Z,61.28
2022-11-15T17:00:53.804Z,55.33
2022-11-15T17:03:22.237Z,48.08
2022-11-15T17:05:52.141Z,53.95
2022-11-15T17:08:22.054Z,53.50
2022-11-15T17:10:50.501Z,43.00
2022-11-15T17:13:18.801Z,57.22
2022-11-15T17:15:46.879Z,83.95
2022-11-15T17:18:15.803Z,60.55
2022-11-15T17:20:43.923Z,87.63
2022-11-15T17:23:15.620Z,80.78
2022-11-15T17:25:43.979Z,80.72
2022-11-15T17:28:12.245Z,74.40
2022-11-15T17:30:43.117Z,56.72
2022-11-15T17:33:11.290Z,55.97
2022-11-15T17:35:39.376Z,66.00
2022-11-15T17:38:07.378Z,51.30
2022-11-15T17:40:36.809Z,66.03
2022-11-15T17:43:07.681Z,70.00
2022-11-15T17:45:37.611Z,44.42
2022-11-15T17:48:05.817Z,58.28
2022-11-15T17:50:33.937Z,40.50
2022-11-15T17:53:01.905Z,44.05
2022-11-15T17:55:29.941Z,50.22
2022-11-15T17:57:59.321Z,46.78
2022-11-15T18:00:27.510Z,48.65
2022-11-15T18:02:57.958Z,51.60
2022-11-15T18:05:26.005Z,60.63
2022-11-15T18:07:53.972Z,38.55
2022-11-15T18:10:22.015Z,46.15
2022-11-15T18:12:50.141Z,66.85
2022-11-15T18:15:21.409Z,60.60
2022-11-15T18:17:49.451Z,55.35
2022-11-15T18:20:18.070Z,49.03
2022-11-15T18:22:46.115Z,47.40
2022-11-15T18:25:16.218Z,43.13
2022-11-15T18:27:44.388Z,40.88
2022-11-15T18:30:13.522Z,42.75
2022-11-15T18:32:43.085Z,37.15
2022-11-15T18:35:11.136Z,37.33
2022-11-15T18:37:39.163Z,36.08
2022-11-15T18:40:08.402Z,34.70
2022-11-15T18:42:36.456Z,50.28
2022-11-15T18:45:04.945Z,49.20
2022-11-15T18:47:33.020Z,43.28
2022-11-15T18:50:02.430Z,34.28
2022-11-15T18:52:30.851Z,38.38
2022-11-15T18:54:59.039Z,35.78
2022-11-15T18:57:27.085Z,39.08
2022-11-15T18:59:55.157Z,34.63
2022-11-15T19:02:23.305Z,46.20
2022-11-15T19:04:51.288Z,68.07
2022-11-15T19:07:20.830Z,52.38
2022-11-15T19:09:48.968Z,58.35
2022-11-15T19:12:17.001Z,40.95
2022-11-15T19:14:44.998Z,39.20
2022-11-15T19:17:12.989Z,42.33
2022-11-15T19:19:41.184Z,40.08
2022-11-15T19:22:09.190Z,37.10
2022-11-15T19:24:38.635Z,35.38
2022-11-15T19:27:06.753Z,59.17
2022-11-15T19:29:34.792Z,43.42
2022-11-15T19:32:04.009Z,44.13
2022-11-15T19:34:32.096Z,44.30
2022-11-15T19:37:00.149Z,47.63
2022-11-15T19:39:28.261Z,39.90
2022-11-15T19:41:57.686Z,43.90
2022-11-15T19:44:27.262Z,39.55
2022-11-15T19:46:55.421Z,45.70
2022-11-15T19:49:23.612Z,40.15
2022-11-15T19:51:51.715Z,39.60
2022-11-15T19:54:19.775Z,36.03
2022-11-15T19:56:47.776Z,36.60
2022-11-15T19:59:17.431Z,37.97
2022-11-15T20:01:45.635Z,38.72
2022-11-15T20:04:13.644Z,35.55
2022-11-15T20:06:43.150Z,40.95
2022-11-15T20:09:14.093Z,44.20
2022-11-15T20:11:42.627Z,40.17
2022-11-15T20:14:12.902Z,40.38
2022-11-15T20:16:47.948Z,37.88
2022-11-15T20:19:19.539Z,38.45
2022-11-15T20:21:47.629Z,36.33
2022-11-15T20:24:16.212Z,40.63
2022-11-15T20:26:44.389Z,48.55
2022-11-15T20:29:12.493Z,62.67
2022-11-15T20:31:40.610Z,44.30
2022-11-15T20:34:10.039Z,46.00
2022-11-15T20:36:38.103Z,38.05
2022-11-15T20:39:06.132Z,36.45
2022-11-15T20:41:34.287Z,42.83
2022-11-15T20:44:03.146Z,41.58
2022-11-15T20:46:31.289Z,40.92
2022-11-15T20:48:59.399Z,39.55
2022-11-15T20:51:28.889Z,37.50
2022-11-15T20:53:57.317Z,40.65
2022-11-15T20:56:25.329Z,40.42
2022-11-15T20:58:53.486Z,38.65
2022-11-15T21:01:24.485Z,40.00
2022-11-15T21:03:53.966Z,37.35
2022-11-15T21:06:22.442Z,36.05
2022-11-15T21:09:10.320Z,37.97
2022-11-15T21:11:56.404Z,40.03
2022-11-15T21:14:24.526Z,39.63
2022-11-15T21:16:52.633Z,42.65
2022-11-15T21:19:25.424Z,36.28
2022-11-15T21:21:56.172Z,35.92
2022-11-15T21:24:25.840Z,41.78
2022-11-15T21:26:54.613Z,38.58
2022-11-15T21:29:22.821Z,38.42
2022-11-15T21:31:52.761Z,36.92
2022-11-15T21:34:21.429Z,41.55
2022-11-15T21:36:49.429Z,47.70
2022-11-15T21:39:17.415Z,43.75
2022-11-15T21:41:46.875Z,41.35
2022-11-15T21:44:14.869Z,39.40
2022-11-15T21:46:42.867Z,43.10
2022-11-15T21:49:11.038Z,46.13
2022-11-15T21:51:39.402Z,40.22
2022-11-15T21:54:07.732Z,37.28
2022-11-15T21:56:36.902Z,38.78
2022-11-15T21:59:06.292Z,39.15
2022-11-15T22:01:52.024Z,37.22
2022-11-15T22:04:21.503Z,35.35
2022-11-15T22:06:49.545Z,34.40
2022-11-15T22:09:17.553Z,33.35
2022-11-15T22:11:45.565Z,35.60
2022-11-15T22:14:15.164Z,37.45
2022-11-15T22:16:43.164Z,35.40
2022-11-15T22:19:11.339Z,34.15
2022-11-15T22:21:40.155Z,36.13
2022-11-15T22:24:09.208Z,36.88
2022-11-15T22:26:37.411Z,41.03
2022-11-15T22:29:05.599Z,43.13
2022-11-15T22:31:35.148Z,41.38
2022-11-15T22:34:03.298Z,43.97
2022-11-15T22:36:46.906Z,44.15
2022-11-15T22:39:19.671Z,38.13
2022-11-15T22:41:47.846Z,43.20
2022-11-15T22:44:15.933Z,43.78
2022-11-15T22:46:45.422Z,44.97
2022-11-15T22:49:13.544Z,44.08
2022-11-15T22:51:41.772Z,39.17
2022-11-15T22:54:09.951Z,39.63
2022-11-15T22:56:38.161Z,41.40
2022-11-15T22:59:06.325Z,41.53
2022-11-15T23:01:34.578Z,38.00
2022-11-15T23:04:04.275Z,39.28
2022-11-15T23:06:32.502Z,38.55
2022-11-15T23:09:00.746Z,40.30
2022-11-15T23:11:46.376Z,40.03
2022-11-15T23:14:14.567Z,38.58
2022-11-15T23:16:42.873Z,35.67
2022-11-15T23:19:13.420Z,33.20
2022-11-15T23:22:00.425Z,33.28
2022-11-15T23:24:28.803Z,36.05
2022-11-15T23:26:59.041Z,36.03
2022-11-15T23:29:28.708Z,32.97
2022-11-15T23:32:15.342Z,32.92
2022-11-15T23:34:46.596Z,32.15
2022-11-15T23:37:16.600Z,31.65
2022-11-15T23:39:44.769Z,32.63
2022-11-15T23:42:19.991Z,36.03
2022-11-15T23:44:50.101Z,34.88
2022-11-15T23:47:18.550Z,36.50
2022-11-15T23:49:48.447Z,35.90
2022-11-15T23:52:17.421Z,34.47
2022-11-15T23:54:45.599Z,34.35
2022-11-15T23:57:13.818Z,37.55
2022-11-15T23:59:43.542Z,37.25
